Time;durP1;ratioP1;P1;durP2;ratioP2;P2;SDS_P1;SDS_P2;PMS_P1;PMS_P2;Temp;Humidity;BMP_temperature;BMP_pressure;BME280_temperature;BME280_humidity;BME280_pressure;Samples;Min_cycle;Max_cycle;Signal;HPM_P1;HPM_P2
2024/02/06 00:00:41;;;;;;;7.80;2.90;;;;;;;11.38;28.90;94206.34;5044150;28;20635;-72
2024/02/06 00:03:06;;;;;;;6.55;3.60;;;;;;;11.30;29.33;94208.97;5041367;28;20041;-72
2024/02/06 00:05:31;;;;;;;5.18;3.03;;;;;;;11.37;29.60;94209.31;5044673;28;20088;-72
2024/02/06 00:07:57;;;;;;;7.45;2.90;;;;;;;11.33;29.40;94222.47;5043902;28;20481;-71
2024/02/06 00:10:22;;;;;;;5.63;3.50;;;;;;;11.40;29.12;94224.66;5043519;28;20124;-72
2024/02/06 00:12:48;;;;;;;6.35;3.63;;;;;;;11.36;29.14;94211.19;5045130;28;20040;-72
2024/02/06 00:15:13;;;;;;;4.22;2.88;;;;;;;11.38;28.90;94205.56;5042564;28;20033;-72
2024/02/06 00:17:38;;;;;;;7.93;3.28;;;;;;;11.50;28.67;94201.22;5044343;28;20037;-72
2024/02/06 00:20:04;;;;;;;4.90;2.95;;;;;;;11.36;28.75;94203.19;5041637;28;20048;-72
2024/02/06 00:22:30;;;;;;;5.72;2.63;;;;;;;11.47;28.47;94196.50;5018623;28;20397;-72
2024/02/06 00:24:55;;;;;;;5.43;2.42;;;;;;;11.42;28.23;94201.19;5018726;28;20045;-72
2024/02/06 00:27:21;;;;;;;4.57;2.45;;;;;;;11.38;28.35;94218.88;5036239;28;20546;-72
2024/02/06 00:29:48;;;;;;;5.82;2.28;;;;;;;11.14;28.30;94188.09;5043579;28;20040;-72
2024/02/06 00:32:13;;;;;;;6.13;3.20;;;;;;;11.16;28.06;94199.19;5043457;28;20041;-72
2024/02/06 00:34:39;;;;;;;7.60;3.20;;;;;;;11.28;28.23;94205.84;5043899;28;20532;-72
2024/02/06 00:37:04;;;;;;;3.33;2.35;;;;;;;11.26;28.57;94214.13;5044667;28;20075;-70
2024/02/06 00:39:30;;;;;;;6.15;2.35;;;;;;;11.25;28.68;94211.78;5042166;28;20415;-72
2024/02/06 00:41:56;;;;;;;3.15;2.17;;;;;;;11.25;28.12;94174.50;5034189;28;20093;-72
2024/02/06 00:44:21;;;;;;;6.35;2.30;;;;;;;11.29;27.16;94178.13;5022109;28;20057;-72
2024/02/06 00:46:47;;;;;;;2.80;1.67;;;;;;;11.36;27.33;94192.53;5021690;28;20030;-71
2024/02/06 00:49:12;;;;;;;4.18;2.30;;;;;;;11.42;26.77;94198.53;5041996;28;20029;-71
2024/02/06 00:51:37;;;;;;;4.68;2.03;;;;;;;11.35;27.15;94196.28;5041868;28;20052;-71
2024/02/06 00:54:03;;;;;;;4.40;2.50;;;;;;;11.40;27.21;94214.00;5042835;28;20036;-72
2024/02/06 00:56:29;;;;;;;4.90;2.25;;;;;;;11.24;27.09;94210.22;5037788;28;20510;-72
2024/02/06 00:58:54;;;;;;;6.35;1.83;;;;;;;11.46;27.33;94200.25;5015933;28;20032;-72
2024/02/06 01:01:20;;;;;;;7.60;2.30;;;;;;;11.51;26.54;94204.69;5019646;28;20075;-72
2024/02/06 01:03:45;;;;;;;5.68;2.40;;;;;;;11.43;27.00;94216.06;5037614;28;20033;-72
2024/02/06 01:06:11;;;;;;;8.93;3.40;;;;;;;10.74;31.01;94218.41;5026260;28;20236;-72
2024/02/06 01:08:36;;;;;;;11.65;5.75;;;;;;;10.48;31.53;94209.44;5030500;28;20627;-72
2024/02/06 01:11:02;;;;;;;9.43;3.42;;;;;;;10.77;30.70;94211.66;5040934;28;20045;-72
2024/02/06 01:13:28;;;;;;;3.58;2.67;;;;;;;11.17;27.93;94224.75;5044279;28;20039;-72
2024/02/06 01:15:53;;;;;;;3.30;2.22;;;;;;;11.30;28.11;94214.28;5043931;28;20029;-71
2024/02/06 01:18:18;;;;;;;6.07;2.85;;;;;;;11.36;27.82;94210.41;5041074;28;20489;-72
2024/02/06 01:20:44;;;;;;;6.82;2.33;;;;;;;11.52;27.23;94211.59;5043621;28;20037;-72
2024/02/06 01:23:09;;;;;;;5.53;2.67;;;;;;;11.38;27.52;94192.25;5041701;28;20036;-72
2024/02/06 01:25:34;;;;;;;4.85;2.95;;;;;;;11.53;27.58;94202.50;5035289;28;20030;-73
2024/02/06 01:28:00;;;;;;;4.93;2.35;;;;;;;11.41;27.96;94210.25;5040519;28;20037;-72
2024/02/06 01:30:25;;;;;;;4.15;2.58;;;;;;;11.35;27.33;94203.50;5041395;28;20044;-72
2024/02/06 01:32:51;;;;;;;3.67;2.20;;;;;;;11.36;27.38;94202.41;5043936;28;20571;-72
2024/02/06 01:35:17;;;;;;;4.30;2.45;;;;;;;11.56;27.02;94202.69;5040331;28;20076;-71
2024/02/06 01:37:42;;;;;;;5.95;2.92;;;;;;;11.17;30.02;94211.44;5042862;28;20053;-72
2024/02/06 01:40:08;;;;;;;4.15;2.67;;;;;;;10.72;29.66;94188.66;5042299;28;20402;-72
2024/02/06 01:42:33;;;;;;;7.07;3.70;;;;;;;10.68;30.78;94211.63;5041476;28;20363;-72
2024/02/06 01:44:59;;;;;;;3.78;2.35;;;;;;;10.68;28.81;94209.75;5040570;28;20490;-72
2024/02/06 01:47:27;;;;;;;4.45;2.45;;;;;;;10.78;28.46;94211.38;5042047;28;20045;-73
2024/02/06 01:49:55;;;;;;;7.65;4.38;;;;;;;10.13;32.71;94219.78;5041544;28;20486;-72
2024/02/06 01:52:21;;;;;;;8.35;4.53;;;;;;;10.37;32.27;94218.78;5037934;28;20052;-72
2024/02/06 01:54:47;;;;;;;11.63;4.00;;;;;;;10.12;33.20;94238.72;5042045;28;20387;-72
2024/02/06 01:57:13;;;;;;;6.53;4.50;;;;;;;10.15;33.79;94217.63;5042164;28;20363;-72
2024/02/06 01:59:39;;;;;;;10.50;4.72;;;;;;;10.19;33.66;94241.72;5040624;28;20115;-72
2024/02/06 02:02:06;;;;;;;7.80;4.35;;;;;;;10.16;33.65;94240.47;5039272;28;20056;-72
2024/02/06 02:04:32;;;;;;;7.63;4.80;;;;;;;9.97;34.14;94231.84;5041234;28;20033;-72
2024/02/06 02:06:58;;;;;;;8.38;5.00;;;;;;;9.97;34.43;94223.88;5040803;28;20044;-72
2024/02/06 02:09:24;;;;;;;10.15;4.43;;;;;;;9.97;34.18;94212.47;5043072;28;20045;-72
2024/02/06 02:11:49;;;;;;;7.70;4.22;;;;;;;10.15;34.10;94225.59;5041526;28;20163;-72
2024/02/06 02:14:15;;;;;;;7.90;5.20;;;;;;;10.24;33.54;94199.88;5036533;28;20046;-72
2024/02/06 02:16:40;;;;;;;9.02;4.68;;;;;;;10.25;33.61;94182.84;5024454;28;20036;-72
2024/02/06 02:19:06;;;;;;;6.78;4.47;;;;;;;10.10;33.75;94204.44;5041872;28;20048;-72
2024/02/06 02:21:31;;;;;;;6.40;2.97;;;;;;;10.08;32.40;94200.50;5041501;28;20037;-73
2024/02/06 02:23:57;;;;;;;6.93;3.53;;;;;;;10.05;31.56;94185.16;5040516;28;20049;-72
2024/02/06 02:26:23;;;;;;;3.78;2.10;;;;;;;10.28;29.33;94174.25;5036414;28;20041;-72
2024/02/06 02:28:50;;;;;;;3.53;2.28;;;;;;;10.29;29.94;94201.63;5018655;28;20025;-71
2024/02/06 02:31:16;;;;;;;9.80;4.10;;;;;;;10.27;30.13;94193.94;5042541;28;20056;-72
2024/02/06 02:33:42;;;;;;;7.10;2.85;;;;;;;10.43;30.15;94205.03;5041457;28;20045;-72
2024/02/06 02:36:09;;;;;;;2.45;2.08;;;;;;;10.51;29.88;94203.53;5038806;28;20036;-73
2024/02/06 02:38:37;;;;;;;5.32;2.50;;;;;;;10.73;28.54;94195.53;5042382;28;21849;-73
2024/02/06 02:41:02;;;;;;;4.05;2.22;;;;;;;10.85;28.65;94206.44;5044544;28;20029;-72
2024/02/06 02:43:28;;;;;;;4.80;3.00;;;;;;;10.83;28.02;94181.97;5043018;28;20040;-72
2024/02/06 02:45:53;;;;;;;3.35;2.03;;;;;;;11.03;27.86;94197.44;5025039;28;20046;-72
2024/02/06 02:48:19;;;;;;;4.68;1.98;;;;;;;11.04;27.87;94200.88;5037600;28;20118;-73
2024/02/06 02:50:44;;;;;;;3.05;1.90;;;;;;;11.11;27.74;94217.19;5044566;28;20047;-72
2024/02/06 02:53:10;;;;;;;3.63;1.50;;;;;;;11.06;28.03;94204.78;5044869;28;20056;-72
2024/02/06 02:55:35;;;;;;;3.17;1.80;;;;;;;11.20;27.69;94204.69;5046774;28;20730;-72
2024/02/06 02:58:01;;;;;;;3.15;1.60;;;;;;;11.32;27.67;94217.44;5045935;28;20592;-72
2024/02/06 03:00:26;;;;;;;4.32;1.88;;;;;;;11.33;27.84;94224.34;5045874;28;20102;-72
2024/02/06 03:02:52;;;;;;;3.03;1.70;;;;;;;11.43;27.43;94227.53;5044741;28;20034;-73
2024/02/06 03:05:17;;;;;;;5.05;2.13;;;;;;;10.98;28.22;94229.50;5042324;28;20518;-72
2024/02/06 03:07:43;;;;;;;6.93;3.08;;;;;;;10.53;29.93;94217.31;5043022;28;20473;-72
2024/02/06 03:10:09;;;;;;;5.32;3.28;;;;;;;9.97;31.51;94226.53;5022040;28;20045;-72
2024/02/06 03:12:34;;;;;;;9.25;4.03;;;;;;;9.51;32.79;94224.03;5037940;28;20044;-72
2024/02/06 03:15:00;;;;;;;8.18;3.80;;;;;;;9.70;32.99;94253.91;5033483;28;21009;-72
2024/02/06 03:17:26;;;;;;;10.57;3.95;;;;;;;10.02;33.12;94253.00;5029090;28;20574;-72
2024/02/06 03:19:52;;;;;;;17.20;4.35;;;;;;;9.50;34.26;94219.78;5045110;28;20033;-72
2024/02/06 03:22:20;;;;;;;6.18;4.55;;;;;;;10.04;33.48;94256.13;5044775;28;20493;-72
2024/02/06 03:24:45;;;;;;;7.57;4.97;;;;;;;9.90;33.73;94263.34;5046474;28;20029;-72
2024/02/06 03:27:11;;;;;;;8.20;4.60;;;;;;;8.83;35.31;94255.75;5042581;28;20394;-72
2024/02/06 03:29:36;;;;;;;9.82;4.65;;;;;;;8.77;36.00;94268.31;5046286;28;20032;-72
2024/02/06 03:32:03;;;;;;;12.77;5.05;;;;;;;9.08;35.39;94265.94;5044363;28;20029;-72
2024/02/06 03:34:29;;;;;;;12.07;6.35;;;;;;;8.82;35.90;94270.88;5042356;28;20450;-72
2024/02/06 03:36:55;;;;;;;12.70;5.93;;;;;;;9.14;35.67;94277.28;5046330;28;20048;-72
2024/02/06 03:39:21;;;;;;;13.32;6.57;;;;;;;9.38;35.28;94276.06;5036484;28;20048;-72
2024/02/06 03:41:47;;;;;;;8.20;5.50;;;;;;;9.53;34.92;94253.72;5032972;28;20057;-72
2024/02/06 03:44:13;;;;;;;11.77;4.97;;;;;;;9.81;34.77;94265.91;5024369;28;20068;-74
2024/02/06 03:46:40;;;;;;;10.65;5.05;;;;;;;9.95;34.26;94271.22;5042339;28;20029;-73
2024/02/06 03:49:07;;;;;;;7.05;5.15;;;;;;;9.64;35.30;94270.22;5042742;28;20052;-72
2024/02/06 03:51:33;;;;;;;7.32;5.07;;;;;;;9.86;34.56;94265.81;5043876;28;20063;-72
2024/02/06 03:53:58;;;;;;;7.63;5.50;;;;;;;9.85;35.01;94268.75;5033400;28;20541;-72
2024/02/06 03:56:24;;;;;;;10.98;5.55;;;;;;;9.82;34.49;94275.47;5025887;28;20043;-72
2024/02/06 03:58:49;;;;;;;8.80;6.07;;;;;;;9.63;35.44;94247.44;5041874;28;20024;-72
2024/02/06 04:01:16;;;;;;;10.70;5.80;;;;;;;9.66;35.25;94242.31;5023480;28;30039;-72
2024/02/06 04:03:42;;;;;;;10.93;7.03;;;;;;;9.81;35.22;94259.81;5038983;28;20041;-72
2024/02/06 04:06:07;;;;;;;10.73;6.35;;;;;;;9.80;34.97;94259.03;5043738;28;20037;-72
2024/02/06 04:08:32;;;;;;;8.52;5.40;;;;;;;9.79;35.25;94277.91;5044273;28;20045;-72
2024/02/06 04:10:58;;;;;;;11.75;6.78;;;;;;;9.43;35.99;94264.53;5043281;28;20096;-72
2024/02/06 04:13:24;;;;;;;11.27;6.68;;;;;;;9.59;36.03;94273.00;5045692;28;20119;-72
2024/02/06 04:15:49;;;;;;;12.93;6.93;;;;;;;9.64;35.76;94264.91;5044565;28;20091;-73
2024/02/06 04:18:14;;;;;;;8.80;6.18;;;;;;;9.72;35.71;94278.31;5042796;28;20041;-72
2024/02/06 04:20:40;;;;;;;8.32;6.32;;;;;;;9.28;35.88;94267.47;5045126;28;20045;-72
2024/02/06 04:23:06;;;;;;;9.07;6.63;;;;;;;9.39;36.05;94264.31;5041424;28;20045;-72
2024/02/06 04:25:31;;;;;;;8.63;6.07;;;;;;;9.31;35.93;94251.75;5042060;28;20059;-72
2024/02/06 04:27:57;;;;;;;8.27;6.13;;;;;;;9.25;36.02;94234.34;5043539;28;20044;-72
2024/02/06 04:30:23;;;;;;;13.40;6.72;;;;;;;9.40;35.93;94271.22;5045319;28;20540;-72
2024/02/06 04:32:51;;;;;;;14.85;5.70;;;;;;;9.33;35.55;94249.59;5042641;28;20036;-72
2024/02/06 04:35:19;;;;;;;8.30;5.45;;;;;;;9.42;35.85;94273.59;5041568;28;20041;-73
2024/02/06 04:37:45;;;;;;;8.57;5.43;;;;;;;9.47;35.66;94283.31;5043054;28;20055;-72
2024/02/06 04:40:11;;;;;;;9.02;5.30;;;;;;;9.33;35.71;94264.75;5045188;28;20041;-72
2024/02/06 04:42:36;;;;;;;13.68;5.75;;;;;;;9.23;36.18;94272.88;5043734;28;20517;-73
2024/02/06 04:45:03;;;;;;;14.10;6.88;;;;;;;9.03;36.26;94255.41;5043929;28;20524;-72
2024/02/06 04:47:29;;;;;;;12.63;6.43;;;;;;;8.11;37.79;94268.53;5035864;28;20045;-73
2024/02/06 04:49:57;;;;;;;8.43;6.10;;;;;;;8.51;37.72;94275.13;5023693;28;20033;-72
2024/02/06 04:52:23;;;;;;;10.20;6.70;;;;;;;8.90;36.80;94269.44;5042357;28;20021;-72
2024/02/06 04:54:48;;;;;;;11.10;6.68;;;;;;;8.72;37.12;94284.31;5041330;28;20509;-73
2024/02/06 04:57:14;;;;;;;17.95;8.55;;;;;;;8.37;37.86;94279.53;5030273;28;20118;-72
2024/02/06 04:59:40;;;;;;;17.08;6.72;;;;;;;8.53;37.69;94275.59;5023783;28;20303;-72
2024/02/06 05:02:08;;;;;;;12.85;7.40;;;;;;;8.63;37.33;94267.50;5034617;28;20038;-72
2024/02/06 05:04:33;;;;;;;18.00;6.85;;;;;;;8.92;36.92;94301.75;5017144;28;20049;-72
2024/02/06 05:06:59;;;;;;;12.90;6.55;;;;;;;8.66;37.72;94266.91;5040494;28;20128;-73
2024/02/06 05:09:25;;;;;;;12.75;7.72;;;;;;;8.77;37.06;94283.44;5043812;28;20041;-72
2024/02/06 05:11:51;;;;;;;14.63;7.35;;;;;;;7.60;39.22;94277.06;5043234;28;20059;-72
2024/02/06 05:14:16;;;;;;;13.70;7.03;;;;;;;8.12;38.63;94299.22;5042249;28;20061;-72
2024/02/06 05:16:42;;;;;;;12.68;7.30;;;;;;;8.39;38.23;94293.31;5043589;28;20465;-72
2024/02/06 05:19:13;;;;;;;13.15;7.35;;;;;;;8.61;37.80;94290.84;5044240;28;20570;-72
2024/02/06 05:21:39;;;;;;;11.40;7.32;;;;;;;8.46;37.90;94288.44;5042191;28;20036;-70
2024/02/06 05:24:04;;;;;;;12.13;8.15;;;;;;;8.49;37.58;94296.59;5043181;28;20046;-73
2024/02/06 05:26:30;;;;;;;14.00;7.15;;;;;;;8.44;37.44;94238.34;5041224;28;20458;-73
2024/02/06 05:28:55;;;;;;;13.57;7.20;;;;;;;8.76;37.38;94297.78;5037833;28;20151;-72
2024/02/06 05:31:21;;;;;;;11.13;6.32;;;;;;;8.63;37.17;94279.94;5041518;28;20052;-73
2024/02/06 05:33:46;;;;;;;9.43;6.85;;;;;;;8.61;37.63;94292.72;5041687;28;20401;-73
2024/02/06 05:36:12;;;;;;;8.90;6.35;;;;;;;8.61;37.37;94298.78;5041804;28;20452;-73
2024/02/06 05:38:37;;;;;;;10.63;6.70;;;;;;;8.71;37.23;94303.16;5041420;28;20096;-72
2024/02/06 05:41:03;;;;;;;12.23;6.95;;;;;;;8.64;37.66;94284.19;5039159;28;20025;-73
2024/02/06 05:43:28;;;;;;;12.23;6.45;;;;;;;8.62;37.82;94291.63;5042847;28;20082;-72
2024/02/06 05:45:53;;;;;;;14.15;7.65;;;;;;;8.52;37.75;94301.31;5043442;28;20040;-73
2024/02/06 05:48:19;;;;;;;11.65;6.57;;;;;;;8.63;37.53;94285.25;5040491;28;20091;-72
2024/02/06 05:50:44;;;;;;;13.93;7.32;;;;;;;8.66;37.53;94295.31;5040241;28;20040;-73
2024/02/06 05:53:10;;;;;;;21.42;10.35;;;;;;;8.32;38.27;94277.75;5038125;28;20057;-73
2024/02/06 05:55:35;;;;;;;16.60;8.85;;;;;;;8.37;38.11;94280.31;5017428;28;20037;-73
2024/02/06 05:58:01;;;;;;;17.48;8.45;;;;;;;8.53;37.67;94291.50;5037120;28;20132;-73
2024/02/06 06:00:26;;;;;;;16.45;8.77;;;;;;;7.72;38.59;94289.94;5021482;28;20049;-72
2024/02/06 06:02:53;;;;;;;15.25;8.27;;;;;;;7.82;39.06;94294.34;5025324;28;20041;-72
2024/02/06 06:05:22;;;;;;;21.05;8.07;;;;;;;7.91;38.54;94280.19;5041679;28;20045;-72
2024/02/06 06:07:48;;;;;;;13.82;8.40;;;;;;;7.37;39.73;94304.34;5042844;28;20025;-73
2024/02/06 06:10:14;;;;;;;21.25;9.57;;;;;;;7.73;39.60;94296.03;5044839;28;20170;-72
2024/02/06 06:12:40;;;;;;;18.23;8.10;;;;;;;7.86;39.44;94303.28;5043986;28;20565;-72
2024/02/06 06:15:06;;;;;;;19.52;9.48;;;;;;;7.71;39.60;94294.44;5045674;28;20112;-72
2024/02/06 06:17:31;;;;;;;17.10;9.00;;;;;;;8.05;39.06;94288.22;5043863;28;20041;-74
2024/02/06 06:19:57;;;;;;;22.15;9.13;;;;;;;8.17;38.62;94301.81;5043474;28;20509;-72
2024/02/06 06:22:23;;;;;;;19.58;10.05;;;;;;;8.23;38.49;94311.28;5021009;28;20722;-73
2024/02/06 06:24:48;;;;;;;27.48;13.23;;;;;;;7.88;38.82;94290.53;5040305;28;20041;-72
2024/02/06 06:27:15;;;;;;;23.20;10.27;;;;;;;7.87;39.65;94303.00;5046521;28;20093;-72
2024/02/06 06:29:41;;;;;;;30.23;10.90;;;;;;;7.83;39.34;94306.47;5045163;28;20037;-73
2024/02/06 06:32:07;;;;;;;25.40;10.40;;;;;;;6.89;41.01;94323.84;5042543;28;20473;-73
2024/02/06 06:34:32;;;;;;;35.28;13.80;;;;;;;7.38;40.57;94323.66;5040305;28;20020;-72
2024/02/06 06:36:58;;;;;;;23.08;10.15;;;;;;;7.82;39.62;94326.13;5044372;28;20033;-73
2024/02/06 06:39:23;;;;;;;24.02;9.38;;;;;;;7.85;39.34;94325.53;5030803;28;20444;-73
2024/02/06 06:41:49;;;;;;;23.30;10.25;;;;;;;7.97;39.32;94318.75;5030533;28;20829;-73
2024/02/06 06:44:14;;;;;;;19.77;9.02;;;;;;;7.93;39.35;94309.00;5045959;28;20666;-73
2024/02/06 06:46:40;;;;;;;16.25;7.47;;;;;;;7.89;39.54;94295.56;5045273;28;20035;-73
2024/02/06 06:49:05;;;;;;;12.85;6.03;;;;;;;7.92;38.84;94320.69;5044598;28;20041;-73
2024/02/06 06:51:31;;;;;;;10.20;6.55;;;;;;;7.46;38.89;94299.22;5044156;28;20128;-72
2024/02/06 06:53:56;;;;;;;16.10;7.35;;;;;;;7.19;39.84;94308.47;5044803;28;20047;-72
2024/02/06 06:56:22;;;;;;;14.13;5.72;;;;;;;7.61;39.99;94305.13;5043516;28;20044;-72
2024/02/06 06:58:47;;;;;;;8.65;5.90;;;;;;;7.16;40.00;94292.38;5045618;28;20025;-72
2024/02/06 07:01:13;;;;;;;12.27;5.90;;;;;;;7.19;40.14;94308.47;5043652;28;20025;-74
2024/02/06 07:03:39;;;;;;;12.93;6.88;;;;;;;7.17;39.68;94304.53;5043723;28;20044;-73
2024/02/06 07:06:07;;;;;;;14.75;6.40;;;;;;;6.67;40.46;94252.91;5042182;28;20057;-72
2024/02/06 07:08:32;;;;;;;16.27;6.82;;;;;;;7.09;40.34;94299.88;5045103;28;20033;-73
2024/02/06 07:11:04;;;;;;;20.88;9.70;;;;;;;7.06;40.88;94308.34;5044878;28;20508;-72
2024/02/06 07:13:31;;;;;;;21.70;10.23;;;;;;;6.85;41.15;94282.06;5046886;28;20056;-72
2024/02/06 07:15:56;;;;;;;26.48;9.10;;;;;;;7.22;41.09;94312.44;5043301;28;20087;-72
2024/02/06 07:18:21;;;;;;;18.48;7.82;;;;;;;7.33;40.70;94313.91;5043293;28;20045;-73
2024/02/06 07:20:47;;;;;;;19.85;7.22;;;;;;;7.14;41.28;94305.09;5043335;28;20041;-73
2024/02/06 07:23:12;;;;;;;12.93;8.25;;;;;;;7.28;41.05;94304.16;5042318;28;20033;-72
2024/02/06 07:25:38;;;;;;;18.25;7.55;;;;;;;7.47;40.50;94292.84;5047679;28;20385;-72
2024/02/06 07:28:05;;;;;;;15.48;7.43;;;;;;;7.42;40.54;94296.34;5044114;28;20160;-72
2024/02/06 07:30:31;;;;;;;10.02;6.28;;;;;;;7.39;40.25;94281.00;5041420;28;20044;-72
2024/02/06 07:32:56;;;;;;;13.77;6.60;;;;;;;7.39;40.08;94296.09;5044454;28;20393;-72
2024/02/06 07:35:22;;;;;;;12.57;6.47;;;;;;;7.51;39.96;94302.59;5046848;28;20045;-72
2024/02/06 07:37:47;;;;;;;11.15;7.07;;;;;;;7.52;39.88;94295.44;5043078;28;20053;-72
2024/02/06 07:40:13;;;;;;;11.48;6.28;;;;;;;7.75;40.19;94315.06;5046396;28;20021;-72
2024/02/06 07:42:38;;;;;;;10.05;5.93;;;;;;;8.13;39.21;94290.22;5045661;28;20043;-73
2024/02/06 07:45:04;;;;;;;13.00;6.93;;;;;;;8.09;38.89;94295.31;5042951;28;20036;-72
2024/02/06 07:47:30;;;;;;;9.63;6.25;;;;;;;8.02;39.11;94302.03;5045039;28;20049;-72
2024/02/06 07:49:55;;;;;;;15.73;6.20;;;;;;;8.31;38.66;94301.91;5045432;28;20379;-72
2024/02/06 07:52:21;;;;;;;13.70;6.07;;;;;;;8.42;38.35;94304.13;5046064;28;20521;-72
2024/02/06 07:54:47;;;;;;;14.20;7.10;;;;;;;8.64;37.96;94292.94;5044493;28;20490;-72
2024/02/06 07:57:13;;;;;;;15.15;6.10;;;;;;;8.32;37.97;94274.31;5030356;28;20091;-72
2024/02/06 07:59:38;;;;;;;12.35;5.35;;;;;;;8.32;38.27;94283.06;5028890;28;20354;-73
2024/02/06 08:02:05;;;;;;;13.23;6.65;;;;;;;8.37;38.18;94292.78;5044828;28;20401;-73
2024/02/06 08:04:31;;;;;;;15.90;5.97;;;;;;;8.34;38.00;94293.38;5042671;28;20071;-72
2024/02/06 08:06:56;;;;;;;13.07;5.72;;;;;;;8.17;38.38;94270.00;5041390;28;20115;-73
2024/02/06 08:09:23;;;;;;;12.43;5.72;;;;;;;8.32;38.04;94280.41;5043025;28;20040;-72
2024/02/06 08:11:50;;;;;;;13.30;5.38;;;;;;;8.67;37.45;94278.28;5044833;28;20553;-73
2024/02/06 08:14:16;;;;;;;8.82;4.28;;;;;;;9.14;36.70;94291.34;5040511;28;20053;-73
2024/02/06 08:16:42;;;;;;;7.88;5.38;;;;;;;9.39;36.87;94287.44;5020725;28;20485;-72
2024/02/06 08:19:08;;;;;;;10.95;6.10;;;;;;;9.59;35.62;94279.09;5021352;28;20040;-72
2024/02/06 08:21:34;;;;;;;12.57;5.55;;;;;;;9.23;36.19;94278.97;5036647;28;20237;-73
2024/02/06 08:24:00;;;;;;;14.88;5.30;;;;;;;9.14;35.83;94288.69;5045216;28;20208;-72
2024/02/06 08:26:25;;;;;;;10.85;5.90;;;;;;;8.81;36.02;94273.81;5042432;28;20453;-73
2024/02/06 08:28:50;;;;;;;23.02;8.85;;;;;;;9.24;35.83;94287.72;5042098;28;20032;-72
2024/02/06 08:31:17;;;;;;;12.80;5.20;;;;;;;9.52;35.21;94285.88;5044166;28;20103;-72
2024/02/06 08:33:44;;;;;;;14.07;5.47;;;;;;;9.42;35.67;94289.50;5044598;28;20048;-73
2024/02/06 08:36:16;;;;;;;13.30;6.00;;;;;;;9.27;35.37;94277.31;5044212;28;20083;-72
2024/02/06 08:38:41;;;;;;;10.93;5.78;;;;;;;9.32;35.52;94284.38;5041860;28;20045;-73
2024/02/06 08:41:08;;;;;;;10.80;5.55;;;;;;;9.37;36.16;94292.25;5041553;28;20367;-73
2024/02/06 08:43:34;;;;;;;15.75;5.82;;;;;;;9.53;36.06;94284.81;5045550;28;20037;-72
2024/02/06 08:46:00;;;;;;;15.40;6.43;;;;;;;9.25;35.71;94290.06;5042720;28;20053;-72
2024/02/06 08:48:28;;;;;;;20.05;6.90;;;;;;;9.56;35.21;94285.00;5042793;28;20501;-72
2024/02/06 08:50:54;;;;;;;11.02;5.90;;;;;;;9.47;35.54;94286.78;5040949;28;20048;-72
2024/02/06 08:53:20;;;;;;;9.45;4.53;;;;;;;9.80;35.45;94277.63;5042402;28;20037;-73
2024/02/06 08:55:45;;;;;;;19.10;6.10;;;;;;;10.01;34.81;94278.00;5045038;28;20025;-72
2024/02/06 08:58:11;;;;;;;11.43;5.90;;;;;;;10.18;34.05;94286.13;5039837;28;20045;-72
2024/02/06 09:00:36;;;;;;;12.88;5.10;;;;;;;10.02;34.73;94287.56;5044633;28;20036;-72
2024/02/06 09:03:02;;;;;;;12.98;5.63;;;;;;;10.06;34.69;94283.22;5029827;28;20048;-72
2024/02/06 09:05:28;;;;;;;13.52;6.93;;;;;;;9.90;35.18;94281.94;5025915;28;20144;-73
2024/02/06 09:07:54;;;;;;;8.73;5.72;;;;;;;9.88;35.12;94286.75;5043640;28;20108;-72
2024/02/06 09:10:19;;;;;;;15.13;6.47;;;;;;;10.08;34.75;94280.22;5041887;28;20478;-72
2024/02/06 09:12:45;;;;;;;14.43;6.53;;;;;;;10.12;34.85;94265.28;5041908;28;20143;-73
2024/02/06 09:15:11;;;;;;;21.00;6.00;;;;;;;10.47;33.91;94261.06;5041830;28;20025;-72
2024/02/06 09:17:36;;;;;;;17.20;6.57;;;;;;;10.54;34.39;94275.53;5040244;28;20041;-72
2024/02/06 09:20:02;;;;;;;14.98;5.95;;;;;;;10.58;33.87;94262.41;5041099;28;20024;-72
2024/02/06 09:22:28;;;;;;;9.43;5.95;;;;;;;10.50;34.09;94261.25;5042101;28;20044;-72
2024/02/06 09:24:53;;;;;;;16.10;6.22;;;;;;;10.76;34.00;94269.41;5042507;28;20041;-72
2024/02/06 09:27:19;;;;;;;18.02;5.97;;;;;;;10.77;34.01;94263.00;5025288;28;20112;-72
2024/02/06 09:29:44;;;;;;;15.75;5.82;;;;;;;10.87;33.95;94256.66;5017257;28;20037;-72
2024/02/06 09:32:10;;;;;;;14.85;6.90;;;;;;;10.70;33.30;94265.31;5022617;28;20044;-72
2024/02/06 09:34:35;;;;;;;14.88;6.50;;;;;;;10.87;33.32;94238.81;5044072;28;20243;-72
2024/02/06 09:37:00;;;;;;;19.30;7.45;;;;;;;11.39;32.95;94255.06;5039972;28;20920;-72
2024/02/06 09:39:26;;;;;;;15.88;6.57;;;;;;;11.18;33.43;94255.59;5041804;28;20137;-72
2024/02/06 09:41:53;;;;;;;16.25;6.57;;;;;;;11.15;33.94;94250.88;5042848;28;20608;-72
2024/02/06 09:44:18;;;;;;;13.98;6.72;;;;;;;11.15;33.20;94252.75;5037336;28;20039;-72
2024/02/06 09:46:49;;;;;;;18.05;6.88;;;;;;;11.17;33.32;94247.91;5041902;28;20033;-72
2024/02/06 09:49:17;;;;;;;19.63;7.18;;;;;;;11.21;33.63;94250.75;5044595;28;20049;-72
2024/02/06 09:51:44;;;;;;;15.13;6.00;;;;;;;10.98;33.68;94242.81;5042001;28;20037;-73
2024/02/06 09:54:15;;;;;;;10.52;6.25;;;;;;;11.24;33.15;94242.94;5041315;28;20029;-72
2024/02/06 09:56:42;;;;;;;15.77;6.75;;;;;;;11.43;32.70;94208.88;5041786;28;20041;-72
2024/02/06 09:59:09;;;;;;;14.65;6.00;;;;;;;11.32;33.53;94228.09;5036059;28;20504;-72
2024/02/06 10:01:37;;;;;;;15.57;8.43;;;;;;;11.28;32.67;94221.81;5021094;28;20039;-72
2024/02/06 10:04:04;;;;;;;12.38;6.80;;;;;;;11.31;32.92;94202.56;5038992;28;20037;-72
2024/02/06 10:06:30;;;;;;;16.73;6.10;;;;;;;11.33;32.59;94197.72;5042236;28;20512;-72
2024/02/06 10:08:57;;;;;;;14.88;5.80;;;;;;;11.61;32.37;94193.75;5043355;28;20029;-72
2024/02/06 10:11:24;;;;;;;17.52;6.15;;;;;;;11.58;32.82;94195.16;5036402;28;20048;-72
2024/02/06 10:13:50;;;;;;;13.05;6.60;;;;;;;11.40;32.47;94155.41;5017175;28;20029;-72
2024/02/06 10:16:15;;;;;;;21.08;7.22;;;;;;;11.76;32.36;94179.22;5040813;28;20036;-72
2024/02/06 10:18:55;;;;;;;15.27;7.40;;;;;;;11.71;32.25;94177.47;5040200;28;20321;-72
2024/02/06 10:21:21;;;;;;;23.70;6.80;;;;;;;11.73;32.36;94169.97;5043491;28;20590;-72
2024/02/06 10:23:47;;;;;;;14.73;7.32;;;;;;;11.59;32.11;94169.28;5033070;28;20116;-72
2024/02/06 10:26:19;;;;;;;11.43;6.50;;;;;;;11.90;31.74;94166.53;5042587;28;20045;-72
2024/02/06 10:28:45;;;;;;;15.38;7.55;;;;;;;11.80;31.43;94156.16;5041731;28;20032;-72
2024/02/06 10:31:11;;;;;;;34.50;8.82;;;;;;;11.82;31.97;94154.78;5042505;28;20445;-72
2024/02/06 10:33:38;;;;;;;16.15;6.57;;;;;;;12.26;31.12;94139.56;5041897;28;20053;-72
2024/02/06 10:36:04;;;;;;;21.05;7.82;;;;;;;12.39;31.09;94147.38;5031799;28;20099;-72
2024/02/06 10:38:30;;;;;;;12.95;6.75;;;;;;;12.41;30.97;94120.41;5020731;28;20042;-72
2024/02/06 10:40:57;;;;;;;20.88;10.15;;;;;;;12.62;30.72;94137.31;5020451;28;20382;-72
2024/02/06 10:43:31;;;;;;;34.45;9.30;;;;;;;12.78;30.46;94122.38;5044997;28;20078;-72
2024/02/06 10:45:58;;;;;;;18.65;7.72;;;;;;;12.46;30.68;94109.56;5042625;28;20158;-72
2024/02/06 10:48:24;;;;;;;16.33;6.03;;;;;;;12.68;30.17;94125.41;5039674;28;20042;-72
2024/02/06 10:51:01;;;;;;;19.75;9.10;;;;;;;12.70;30.66;94117.88;5038286;28;20048;-72
2024/02/06 10:53:27;;;;;;;14.43;8.95;;;;;;;13.14;30.13;94107.81;5042567;28;20045;-72
2024/02/06 10:56:09;;;;;;;18.13;6.57;;;;;;;12.64;30.17;94084.44;5045715;28;20028;-71
2024/02/06 10:58:40;;;;;;;21.05;10.10;;;;;;;12.76;30.71;94099.78;5044088;28;20037;-72
2024/02/06 11:01:09;;;;;;;23.30;10.88;;;;;;;12.71;31.06;94092.72;5046347;28;20049;-72
2024/02/06 11:03:41;;;;;;;15.70;8.02;;;;;;;12.58;30.32;94088.38;5046413;28;20043;-72
2024/02/06 11:06:16;;;;;;;26.52;10.25;;;;;;;12.46;30.58;94049.00;5044725;28;20064;-72
2024/02/06 11:08:45;;;;;;;29.70;12.48;;;;;;;12.58;30.74;94045.69;5044626;28;20446;-73
2024/02/06 11:11:12;;;;;;;25.30;12.98;;;;;;;12.91;30.73;94074.47;5045577;28;20526;-72
2024/02/06 11:13:46;;;;;;;19.20;8.68;;;;;;;12.90;30.53;94065.66;5046293;28;20059;-73
2024/02/06 11:16:16;;;;;;;31.77;13.00;;;;;;;12.81;30.69;94068.34;5044722;28;20091;-73
2024/02/06 11:18:49;;;;;;;27.88;13.82;;;;;;;13.01;30.04;94047.38;5044142;28;20128;-73
2024/02/06 11:21:19;;;;;;;25.15;12.02;;;;;;;12.91;30.11;94037.09;5030576;28;20572;-73
2024/02/06 11:23:47;;;;;;;18.65;9.23;;;;;;;12.96;30.13;94063.59;5021705;28;20038;-73
2024/02/06 11:26:13;;;;;;;22.90;9.30;;;;;;;13.24;29.90;94060.16;5019102;28;20128;-73